Time;durP1;ratioP1;P1;durP2;ratioP2;P2;SDS_P1;SDS_P2;PMS_P1;PMS_P2;Temp;Humidity;BMP_temperature;BMP_pressure;BME280_temperature;BME280_humidity;BME280_pressure;Samples;Min_cycle;Max_cycle;Signal;HPM_P1;HPM_P2
2021/09/13 00:00:55;;;;;;;3.37;2.77;;;;;;;17.68;100.00;98157.34;5113185;28;20208;-73
2021/09/13 00:03:22;;;;;;;2.97;2.60;;;;;;;17.64;100.00;98160.13;5094579;28;20454;-74
2021/09/13 00:05:48;;;;;;;3.00;2.67;;;;;;;17.57;100.00;98157.22;5101153;28;20224;-74
2021/09/13 00:08:15;;;;;;;4.47;2.57;;;;;;;17.56;100.00;98152.84;5090419;28;20748;-72
2021/09/13 00:10:43;;;;;;;5.77;2.80;;;;;;;17.52;100.00;98154.78;5091516;28;20205;-74
2021/09/13 00:13:10;;;;;;;3.83;2.70;;;;;;;17.52;100.00;98151.19;5091434;28;20291;-73
2021/09/13 00:15:37;;;;;;;3.87;3.03;;;;;;;17.55;100.00;98154.03;5092006;28;20719;-73
2021/09/13 00:18:03;;;;;;;3.27;2.77;;;;;;;17.51;100.00;98163.53;5074090;28;20699;-73
2021/09/13 00:20:30;;;;;;;4.80;2.70;;;;;;;17.42;100.00;98160.22;5092845;28;20287;-73
2021/09/13 00:22:57;;;;;;;4.20;2.90;;;;;;;17.39;100.00;98159.00;5092633;28;20291;-72
2021/09/13 00:25:23;;;;;;;5.23;2.23;;;;;;;17.38;100.00;98162.97;5091920;28;20238;-72
2021/09/13 00:27:52;;;;;;;6.03;2.67;;;;;;;17.37;100.00;98164.16;5091440;28;20209;-72
2021/09/13 00:30:19;;;;;;;3.47;2.63;;;;;;;17.39;100.00;98164.56;5091786;28;20224;-72
2021/09/13 00:32:46;;;;;;;3.53;2.63;;;;;;;17.48;100.00;98161.53;5097804;28;20207;-73
2021/09/13 00:35:12;;;;;;;5.27;2.70;;;;;;;17.55;100.00;98162.41;5093541;28;20674;-73
2021/09/13 00:37:39;;;;;;;4.03;3.10;;;;;;;17.43;100.00;98159.84;5112554;28;20227;-73
2021/09/13 00:40:06;;;;;;;8.73;3.67;;;;;;;17.37;100.00;98166.94;5111588;28;20208;-73
2021/09/13 00:42:33;;;;;;;3.70;3.07;;;;;;;17.24;100.00;98171.19;5112293;28;20336;-73
2021/09/13 00:45:01;;;;;;;7.17;3.57;;;;;;;17.26;100.00;98162.44;5111459;28;20223;-73
2021/09/13 00:47:28;;;;;;;4.10;3.07;;;;;;;17.27;100.00;98166.81;5112281;28;20208;-74
2021/09/13 00:49:54;;;;;;;3.80;3.33;;;;;;;17.24;100.00;98160.03;5111161;28;20724;-74
2021/09/13 00:52:21;;;;;;;5.40;3.30;;;;;;;17.23;100.00;98155.63;5093861;28;20711;-74
2021/09/13 00:54:48;;;;;;;5.73;3.53;;;;;;;17.23;100.00;98161.19;5111150;28;20729;-73
2021/09/13 00:57:14;;;;;;;3.73;3.07;;;;;;;17.27;100.00;98159.25;5111743;28;20290;-75
2021/09/13 01:34:31;;;;;;;5.07;3.70;;;;;;;16.68;100.00;98159.28;5108237;27;20564;-72
2021/09/13 01:36:58;;;;;;;3.53;2.93;;;;;;;16.71;100.00;98150.97;5088399;28;20232;-74
2021/09/13 01:39:24;;;;;;;4.33;3.13;;;;;;;16.56;100.00;98154.75;5088275;28;20208;-74
2021/09/13 01:41:51;;;;;;;5.20;3.27;;;;;;;16.41;100.00;98163.22;5087946;28;20200;-73
2021/09/13 01:44:18;;;;;;;6.30;3.13;;;;;;;16.53;100.00;98155.47;5087988;28;20311;-74
2021/09/13 01:46:44;;;;;;;3.27;2.90;;;;;;;16.50;100.00;98166.56;5087973;28;20901;-75
2021/09/13 01:49:12;;;;;;;3.57;2.70;;;;;;;16.58;100.00;98157.97;5088434;28;20311;-73
2021/09/13 01:51:39;;;;;;;3.87;3.20;;;;;;;16.56;100.00;98165.06;5087498;28;20240;-75
2021/09/13 01:54:06;;;;;;;5.23;2.93;;;;;;;16.53;100.00;98163.06;5088079;28;20228;-75
2021/09/13 01:56:33;;;;;;;5.13;3.00;;;;;;;16.40;100.00;98161.63;5088102;28;20220;-74
2021/09/13 01:58:59;;;;;;;3.90;2.90;;;;;;;16.51;100.00;98165.41;5088652;28;20215;-74
2021/09/13 02:01:26;;;;;;;2.97;2.53;;;;;;;16.43;100.00;98160.88;5104921;28;20245;-75
2021/09/13 02:03:54;;;;;;;4.37;2.67;;;;;;;16.44;100.00;98162.50;5111816;28;20227;-76
2021/09/13 02:06:20;;;;;;;4.23;2.30;;;;;;;16.45;100.00;98172.44;5090895;28;20200;-75
2021/09/13 02:08:47;;;;;;;2.63;2.27;;;;;;;16.47;100.00;98161.72;5088321;28;20303;-74
2021/09/13 02:11:14;;;;;;;3.07;2.30;;;;;;;16.35;100.00;98161.94;5088104;28;20303;-75
2021/09/13 02:13:40;;;;;;;3.30;2.53;;;;;;;16.37;100.00;98162.38;5086891;28;20224;-75
2021/09/13 02:16:07;;;;;;;2.83;2.37;;;;;;;16.39;100.00;98166.38;5087594;28;20211;-75
2021/09/13 02:18:34;;;;;;;6.20;2.30;;;;;;;16.35;100.00;98164.72;5087910;28;20209;-76
2021/09/13 02:21:00;;;;;;;6.33;2.00;;;;;;;16.37;100.00;98165.94;5087350;28;20299;-75
2021/09/13 02:23:27;;;;;;;4.70;2.77;;;;;;;16.36;100.00;98166.34;5086756;28;20285;-75
2021/09/13 02:25:53;;;;;;;3.17;2.30;;;;;;;16.30;100.00;98168.63;5079232;28;20230;-73
2021/09/13 02:28:20;;;;;;;3.10;2.40;;;;;;;16.20;100.00;98166.50;5077248;28;20208;-73
2021/09/13 02:30:46;;;;;;;3.70;2.43;;;;;;;16.27;100.00;98163.00;5085290;28;20201;-74
2021/09/13 02:33:17;;;;;;;7.67;2.93;;;;;;;16.28;100.00;98164.63;5105453;28;20248;-73
2021/09/13 02:35:45;;;;;;;2.87;2.40;;;;;;;16.26;100.00;98151.06;5111254;28;20216;-73
2021/09/13 02:38:11;;;;;;;2.90;2.20;;;;;;;16.23;100.00;98147.06;5091183;28;20212;-75
2021/09/13 02:40:38;;;;;;;2.83;2.40;;;;;;;16.18;100.00;98150.13;5087221;28;20308;-74
2021/09/13 02:43:04;;;;;;;3.60;2.43;;;;;;;16.16;100.00;98152.50;5087675;28;20205;-74
2021/09/13 02:45:31;;;;;;;3.77;2.47;;;;;;;16.16;100.00;98146.94;5074842;28;20229;-74
2021/09/13 02:47:57;;;;;;;3.00;2.50;;;;;;;16.17;100.00;98142.97;5074812;28;20292;-74
2021/09/13 02:50:24;;;;;;;2.80;2.50;;;;;;;16.10;100.00;98142.06;5075741;28;20766;-74
2021/09/13 02:52:50;;;;;;;3.93;2.60;;;;;;;16.04;100.00;98146.31;5075753;28;20217;-73
2021/09/13 02:55:17;;;;;;;3.47;2.87;;;;;;;16.02;100.00;98146.69;5072842;28;20235;-73
2021/09/13 02:57:43;;;;;;;2.53;2.20;;;;;;;16.07;100.00;98146.41;5075590;28;20237;-73
2021/09/13 03:00:10;;;;;;;3.60;2.67;;;;;;;16.11;100.00;98141.66;5073992;28;20203;-73
2021/09/13 03:02:36;;;;;;;2.80;2.40;;;;;;;16.23;100.00;98143.47;5074629;28;20269;-74
2021/09/13 03:05:04;;;;;;;3.50;2.43;;;;;;;16.21;100.00;98141.06;5070899;28;20217;-72
2021/09/13 03:07:30;;;;;;;2.90;2.40;;;;;;;16.17;100.00;98140.19;5075632;28;20209;-74
2021/09/13 03:09:56;;;;;;;5.10;2.63;;;;;;;16.15;100.00;98138.94;5056201;28;20576;-74
2021/09/13 03:12:24;;;;;;;3.97;2.43;;;;;;;16.10;100.00;98142.06;5053962;28;20256;-73
2021/09/13 03:14:50;;;;;;;3.20;2.60;;;;;;;16.12;100.00;98146.09;5035062;28;20230;-74
2021/09/13 03:17:17;;;;;;;2.90;2.50;;;;;;;16.00;100.00;98140.69;5052725;28;20237;-75
2021/09/13 03:19:43;;;;;;;7.10;2.90;;;;;;;15.93;100.00;98137.00;5053539;28;20255;-74
2021/09/13 03:22:10;;;;;;;5.87;2.57;;;;;;;15.91;100.00;98134.56;5053707;28;20323;-72
2021/09/13 03:24:36;;;;;;;3.53;2.23;;;;;;;15.93;100.00;98137.00;5052075;28;20312;-75
2021/09/13 03:27:03;;;;;;;4.40;2.70;;;;;;;15.89;100.00;98136.94;5051843;28;20216;-75
2021/09/13 03:29:29;;;;;;;4.73;2.90;;;;;;;15.89;100.00;98142.50;5066042;28;20280;-73
2021/09/13 03:31:56;;;;;;;3.00;2.30;;;;;;;15.79;100.00;98140.34;5071768;28;20729;-74
2021/09/13 03:34:22;;;;;;;2.87;2.60;;;;;;;15.89;100.00;98142.50;5072493;28;20251;-73
2021/09/13 03:36:49;;;;;;;3.27;2.30;;;;;;;15.86;100.00;98148.00;5070896;28;20216;-72
2021/09/13 03:39:15;;;;;;;3.07;2.23;;;;;;;15.86;100.00;98146.03;5074670;28;20202;-72
2021/09/13 03:41:41;;;;;;;9.93;2.77;;;;;;;15.89;100.00;98136.16;5073356;28;20303;-75
2021/09/13 03:44:08;;;;;;;3.60;2.27;;;;;;;15.86;100.00;98129.34;5074298;28;20307;-73
2021/09/13 03:46:34;;;;;;;3.17;2.50;;;;;;;15.83;100.00;98132.06;5056296;28;20212;-74
2021/09/13 03:49:01;;;;;;;3.00;2.37;;;;;;;15.80;100.00;98135.59;5072256;28;20701;-73
2021/09/13 03:51:27;;;;;;;2.77;2.20;;;;;;;15.77;100.00;98139.09;5072611;28;20215;-73
2021/09/13 03:53:54;;;;;;;2.67;2.13;;;;;;;15.78;100.00;98141.50;5071171;28;20348;-74
2021/09/13 03:56:21;;;;;;;3.43;2.63;;;;;;;15.72;100.00;98137.44;5071484;28;20209;-73
2021/09/13 03:58:48;;;;;;;2.87;2.37;;;;;;;15.69;100.00;98140.16;5070537;28;20205;-74
2021/09/13 04:01:14;;;;;;;3.40;2.57;;;;;;;15.67;100.00;98134.97;5071601;28;20205;-75
2021/09/13 04:03:45;;;;;;;4.13;3.10;;;;;;;15.67;100.00;98140.53;5071413;28;20635;-74
2021/09/13 04:06:37;;;;;;;2.73;2.30;;;;;;;15.69;100.00;98135.38;5056857;28;20205;-73
2021/09/13 04:09:39;;;;;;;6.00;2.47;;;;;;;15.62;100.00;98138.03;5050840;28;20221;-74
2021/09/13 04:14:25;;;;;;;3.63;2.77;;;;;;;15.55;100.00;98131.53;5051437;28;20606;-74
2021/09/13 04:16:52;;;;;;;4.23;2.40;;;;;;;15.55;100.00;98132.34;5051807;28;20208;-76
2021/09/13 04:19:19;;;;;;;2.90;2.37;;;;;;;15.62;100.00;98126.91;5051021;28;20604;-72
2021/09/13 04:21:46;;;;;;;3.60;2.63;;;;;;;15.64;100.00;98134.88;5051648;28;20560;-75
2021/09/13 04:24:12;;;;;;;3.70;2.90;;;;;;;15.58;100.00;98126.06;5051384;28;20659;-72
2021/09/13 04:26:39;;;;;;;5.60;2.40;;;;;;;15.53;100.00;98126.34;5051437;28;20245;-75
2021/09/13 04:29:06;;;;;;;3.57;2.67;;;;;;;15.51;100.00;98123.13;5060825;28;20213;-75
2021/09/13 04:31:33;;;;;;;5.93;2.67;;;;;;;15.46;100.00;98129.00;5079871;28;20425;-74
2021/09/13 04:33:59;;;;;;;4.10;2.47;;;;;;;15.45;100.00;98132.97;5074837;28;20251;-73
2021/09/13 04:36:26;;;;;;;5.40;2.60;;;;;;;15.44;100.00;98125.00;5071478;28;20587;-73
2021/09/13 04:38:55;;;;;;;2.67;2.13;;;;;;;15.42;100.00;98139.25;5071836;28;20219;-76
2021/09/13 04:41:22;;;;;;;3.27;2.60;;;;;;;15.41;100.00;98134.88;5071030;28;20216;-74
2021/09/13 04:43:49;;;;;;;4.70;2.57;;;;;;;15.43;100.00;98135.31;5071015;28;20201;-74
2021/09/13 04:46:15;;;;;;;2.70;2.27;;;;;;;15.43;100.00;98143.66;5071173;28;20205;-75
2021/09/13 04:48:42;;;;;;;3.37;2.67;;;;;;;15.46;100.00;98145.69;5070071;28;20235;-73
2021/09/13 04:51:08;;;;;;;3.67;2.80;;;;;;;15.54;100.00;98147.47;5070515;28;20576;-75
2021/09/13 04:53:35;;;;;;;6.57;2.60;;;;;;;15.57;100.00;98149.50;5071060;28;20315;-72
2021/09/13 04:56:02;;;;;;;2.87;2.27;;;;;;;15.60;100.00;98147.97;5067286;28;20216;-73
2021/09/13 04:58:28;;;;;;;4.53;2.70;;;;;;;15.59;100.00;98143.53;5051127;28;20667;-74
2021/09/13 05:00:55;;;;;;;3.73;2.67;;;;;;;15.66;100.00;98140.88;5050196;28;20212;-73
2021/09/13 05:03:23;;;;;;;5.10;2.77;;;;;;;15.73;100.00;98138.25;5050686;28;20985;-74
2021/09/13 05:05:49;;;;;;;3.67;2.53;;;;;;;15.71;100.00;98135.81;5062118;28;20313;-73
2021/09/13 05:08:16;;;;;;;3.57;2.47;;;;;;;15.74;100.00;98134.28;5069776;28;20246;-73
2021/09/13 05:10:42;;;;;;;2.47;2.20;;;;;;;15.77;100.00;98136.31;5070983;28;20205;-74
2021/09/13 05:13:09;;;;;;;3.13;2.33;;;;;;;15.76;100.00;98138.31;5068705;28;20753;-72
2021/09/13 05:15:35;;;;;;;3.43;2.50;;;;;;;15.81;100.00;98124.09;5069243;28;20780;-72
2021/09/13 05:18:02;;;;;;;3.97;2.87;;;;;;;15.88;100.00;98118.63;5070845;28;20924;-74
2021/09/13 05:20:28;;;;;;;3.47;2.47;;;;;;;15.89;100.00;98125.78;5071093;28;20212;-75
2021/09/13 05:22:59;;;;;;;3.07;2.20;;;;;;;16.01;100.00;98127.59;5069138;28;20244;-72
2021/09/13 05:25:26;;;;;;;2.80;2.27;;;;;;;16.02;100.00;98118.84;5070169;28;20221;-73
2021/09/13 05:27:52;;;;;;;3.17;2.60;;;;;;;16.16;100.00;98119.09;5070906;28;20213;-73
2021/09/13 05:30:20;;;;;;;3.30;2.57;;;;;;;16.21;100.00;98120.75;5070810;28;20212;-74
2021/09/13 05:32:47;;;;;;;2.90;2.13;;;;;;;16.38;100.00;98122.19;5069609;28;20205;-74
2021/09/13 05:35:13;;;;;;;4.30;2.53;;;;;;;16.45;100.00;98119.50;5068561;28;20233;-74
2021/09/13 05:37:40;;;;;;;2.70;2.10;;;;;;;16.55;100.00;98118.91;5070999;28;20773;-74
2021/09/13 05:40:07;;;;;;;2.87;2.10;;;;;;;16.69;100.00;98119.09;5071000;28;20208;-73
2021/09/13 05:42:34;;;;;;;4.83;2.57;;;;;;;16.80;100.00;98120.03;5070459;28;20693;-74
2021/09/13 05:45:01;;;;;;;2.70;2.10;;;;;;;16.79;100.00;98110.84;5060800;28;20304;-74
2021/09/13 05:47:27;;;;;;;2.90;2.13;;;;;;;16.91;100.00;98116.22;5061433;28;20224;-74
2021/09/13 05:49:54;;;;;;;3.30;1.93;;;;;;;17.03;100.00;98106.78;5065517;28;20654;-75
2021/09/13 05:52:21;;;;;;;3.13;2.33;;;;;;;17.11;100.00;98112.06;5073463;28;20236;-74
2021/09/13 05:54:47;;;;;;;3.33;2.57;;;;;;;17.27;100.00;98109.03;5071835;28;20235;-74
2021/09/13 05:57:14;;;;;;;2.70;2.30;;;;;;;17.38;100.00;98107.19;5072741;28;20305;-75
2021/09/13 05:59:41;;;;;;;2.63;2.43;;;;;;;17.48;100.00;98106.50;5072454;28;20307;-75
2021/09/13 06:02:07;;;;;;;3.10;2.20;;;;;;;17.66;100.00;98110.28;5070343;28;20209;-77
2021/09/13 06:04:34;;;;;;;2.80;2.20;;;;;;;18.21;100.00;98117.53;5067741;28;20229;-75
2021/09/13 06:07:01;;;;;;;2.83;2.30;;;;;;;18.81;100.00;98100.38;5049267;28;20240;-75
2021/09/13 06:09:27;;;;;;;5.10;2.90;;;;;;;19.68;100.00;98083.06;5050865;28;20259;-76
2021/09/13 06:11:53;;;;;;;7.72;2.90;;;;;;;19.76;100.00;98073.44;5049825;28;20210;-75
2021/09/13 06:14:23;;;;;;;4.53;2.40;;;;;;;21.28;100.00;98054.28;5051858;28;20229;-77
2021/09/13 06:16:50;;;;;;;4.82;2.47;;;;;;;21.87;100.00;98044.69;5054289;28;20738;-74
2021/09/13 06:19:17;;;;;;;2.92;2.40;;;;;;;22.33;100.00;98043.44;5054267;28;20206;-75
2021/09/13 06:21:44;;;;;;;4.68;2.20;;;;;;;23.24;100.00;98035.94;5061094;28;20306;-77
2021/09/13 06:24:10;;;;;;;3.53;2.15;;;;;;;23.42;100.00;98031.69;5055039;28;20279;-74
2021/09/13 06:26:37;;;;;;;2.20;1.80;;;;;;;22.20;100.00;98037.56;5052575;28;20214;-76
2021/09/13 06:29:05;;;;;;;1.65;1.55;;;;;;;22.46;100.00;98050.94;5063725;28;20231;-75
2021/09/13 06:31:32;;;;;;;3.72;2.05;;;;;;;22.98;100.00;98032.66;5075101;28;20295;-74
2021/09/13 06:33:58;;;;;;;2.65;1.95;;;;;;;22.93;100.00;98033.13;5075636;28;20761;-73
2021/09/13 06:36:27;;;;;;;2.30;2.08;;;;;;;22.92;100.00;98039.97;5075320;28;20346;-75
2021/09/13 06:38:53;;;;;;;2.13;1.92;;;;;;;23.28;100.00;98037.50;5076670;28;20201;-74
2021/09/13 06:41:20;;;;;;;1.70;1.60;;;;;;;23.47;100.00;98039.63;5074197;28;20704;-74
2021/09/13 06:43:47;;;;;;;2.90;1.88;;;;;;;24.12;100.00;98028.97;5081012;28;20485;-74
2021/09/13 06:46:25;;;;;;;6.38;2.00;;;;;;;24.31;100.00;98031.81;5063027;28;20211;-73
2021/09/13 06:48:52;;;;;;;2.72;1.80;;;;;;;24.72;100.00;98031.47;5075552;28;20205;-73
2021/09/13 06:51:18;;;;;;;3.30;1.80;;;;;;;25.15;100.00;98029.34;5093490;28;20228;-73
2021/09/13 06:53:45;;;;;;;2.72;1.80;;;;;;;25.51;100.00;98032.22;5094553;28;20185;-73
2021/09/13 06:56:12;;;;;;;3.58;2.15;;;;;;;25.97;100.00;98040.38;5072459;28;20209;-74
2021/09/13 06:58:42;;;;;;;3.45;2.10;;;;;;;26.31;100.00;98039.97;5055203;28;20321;-73
2021/09/13 07:01:09;;;;;;;3.10;1.98;;;;;;;26.59;100.00;98037.16;5054211;28;20667;-74
2021/09/13 07:03:35;;;;;;;1.85;1.58;;;;;;;26.84;100.00;98039.34;5053936;28;20206;-73
2021/09/13 07:06:03;;;;;;;2.13;1.92;;;;;;;26.57;100.00;98038.84;5052155;28;20680;-73
2021/09/13 07:08:29;;;;;;;4.28;2.10;;;;;;;27.10;100.00;98038.16;5053330;28;20230;-72
2021/09/13 07:10:55;;;;;;;2.38;1.88;;;;;;;27.40;100.00;98032.00;5054089;28;20214;-73
2021/09/13 07:13:22;;;;;;;3.03;1.70;;;;;;;27.82;100.00;98024.19;5053856;28;20209;-74
2021/09/13 07:15:48;;;;;;;2.03;1.83;;;;;;;28.06;100.00;98030.31;5039468;28;20222;-72
2021/09/13 07:18:15;;;;;;;2.42;2.05;;;;;;;28.27;100.00;98033.22;5058528;28;20214;-72
2021/09/13 07:20:42;;;;;;;2.22;1.90;;;;;;;28.84;100.00;98026.34;5054919;28;20770;-72
2021/09/13 07:23:08;;;;;;;2.42;1.83;;;;;;;29.02;100.00;98028.53;5062522;28;21075;-71
2021/09/13 07:25:35;;;;;;;3.53;1.80;;;;;;;29.16;100.00;98031.66;5067493;28;20296;-73
2021/09/13 07:28:02;;;;;;;2.13;1.92;;;;;;;29.65;100.00;98029.72;5055911;28;20296;-72
2021/09/13 07:30:29;;;;;;;3.15;1.80;;;;;;;30.04;100.00;98035.91;5071001;28;20644;-77
2021/09/13 07:32:57;;;;;;;3.53;1.88;;;;;;;29.81;100.00;98032.38;5061600;28;20689;-75
2021/09/13 07:35:23;;;;;;;2.25;1.90;;;;;;;29.70;100.00;98040.53;5062723;28;20312;-74
2021/09/13 07:37:50;;;;;;;2.13;1.90;;;;;;;30.07;100.00;98040.69;5062543;28;20611;-74
2021/09/13 07:40:17;;;;;;;2.28;2.08;;;;;;;30.10;100.00;98039.72;5068004;28;20229;-74
2021/09/13 07:42:46;;;;;;;3.08;2.13;;;;;;;30.39;100.00;98046.63;5059836;28;20201;-73
2021/09/13 07:45:13;;;;;;;2.45;1.88;;;;;;;30.59;100.00;98046.97;5060361;28;20685;-73
2021/09/13 07:47:39;;;;;;;2.22;1.70;;;;;;;30.51;100.00;98047.78;5059387;28;20221;-73
2021/09/13 07:50:07;;;;;;;1.70;1.60;;;;;;;30.85;100.00;98050.34;5060551;28;20280;-73
2021/09/13 07:52:33;;;;;;;2.10;1.90;;;;;;;30.98;100.00;98048.13;5068725;28;20856;-73
2021/09/13 07:55:00;;;;;;;2.50;2.08;;;;;;;31.11;100.00;98051.63;5071678;28;20588;-75
2021/09/13 07:57:26;;;;;;;2.72;2.10;;;;;;;31.54;100.00;98051.25;5070461;28;20215;-73
2021/09/13 07:59:53;;;;;;;2.40;1.88;;;;;;;31.35;100.00;98043.97;5071530;28;20760;-73
2021/09/13 08:02:19;;;;;;;2.40;2.20;;;;;;;31.33;100.00;98042.88;5072151;28;20559;-73
2021/09/13 08:04:46;;;;;;;2.88;2.58;;;;;;;31.03;100.00;98049.53;5068886;28;20265;-73
2021/09/13 08:07:13;;;;;;;2.40;2.20;;;;;;;31.18;100.00;98056.19;5052413;28;20348;-73
2021/09/13 08:09:39;;;;;;;5.32;2.35;;;;;;;31.11;100.00;98063.03;5056671;28;20284;-73
2021/09/13 08:12:07;;;;;;;2.25;1.83;;;;;;;31.71;100.00;98061.03;5065233;28;20279;-74
2021/09/13 08:14:34;;;;;;;3.53;2.50;;;;;;;31.88;100.00;98061.41;5072978;28;20673;-74
2021/09/13 08:17:01;;;;;;;2.78;2.30;;;;;;;32.38;100.00;98065.50;5061853;28;20215;-71
2021/09/13 08:19:27;;;;;;;3.75;1.92;;;;;;;32.34;100.00;98059.16;5064536;28;20222;-73
2021/09/13 08:21:54;;;;;;;3.58;1.90;;;;;;;31.85;100.00;98060.34;5068133;28;20669;-74
2021/09/13 08:24:20;;;;;;;2.92;1.90;;;;;;;31.37;100.00;98057.78;5070478;28;20220;-73
2021/09/13 08:26:47;;;;;;;1.95;1.75;;;;;;;30.90;100.00;98063.97;5071916;28;20608;-73
2021/09/13 08:29:18;;;;;;;5.13;1.73;;;;;;;30.56;100.00;98067.09;5072222;28;20211;-73
2021/09/13 08:31:44;;;;;;;2.83;2.50;;;;;;;30.33;100.00;98064.84;5072332;28;20222;-72
2021/09/13 08:34:13;;;;;;;2.55;2.35;;;;;;;29.93;100.00;98068.47;5071214;28;20365;-72
2021/09/13 08:36:40;;;;;;;2.25;2.05;;;;;;;29.72;100.00;98066.50;5062614;28;20764;-72
2021/09/13 08:39:06;;;;;;;2.40;2.08;;;;;;;30.11;100.00;98069.81;5061301;28;20295;-73
2021/09/13 08:41:34;;;;;;;2.05;1.85;;;;;;;30.12;100.00;98069.31;5071954;28;20228;-72
2021/09/13 08:44:01;;;;;;;2.88;1.80;;;;;;;29.75;100.00;98071.22;5070806;28;20403;-72
2021/09/13 08:46:40;;;;;;;2.50;1.90;;;;;;;29.62;100.00;98076.19;5071071;28;20251;-72
2021/09/13 08:49:12;;;;;;;1.77;1.63;;;;;;;29.31;100.00;98074.56;5071795;28;20212;-72
2021/09/13 08:51:39;;;;;;;2.17;1.65;;;;;;;29.33;100.00;98067.16;5071838;28;20239;-72
2021/09/13 08:54:09;;;;;;;2.33;1.60;;;;;;;29.56;100.00;98080.88;5070814;28;20229;-72
2021/09/13 08:56:40;;;;;;;2.22;1.70;;;;;;;29.85;100.00;98077.78;5070624;28;20256;-72
2021/09/13 08:59:15;;;;;;;1.70;1.38;;;;;;;29.81;100.00;98086.44;5071816;28;20715;-73
2021/09/13 09:01:44;;;;;;;1.25;1.15;;;;;;;30.08;100.00;98082.91;5072122;28;20239;-73
2021/09/13 09:04:11;;;;;;;1.52;1.27;;;;;;;30.16;100.00;98078.53;5071828;28;20316;-73
2021/09/13 09:06:43;;;;;;;1.23;1.13;;;;;;;30.70;100.00;98084.38;5053534;28;20206;-73
2021/09/13 09:09:15;;;;;;;1.50;1.30;;;;;;;31.30;100.00;98087.38;5051436;28;20205;-72
2021/09/13 09:11:55;;;;;;;1.27;1.15;;;;;;;31.54;100.00;98085.47;5051565;28;20222;-72
2021/09/13 09:14:43;;;;;;;1.38;1.27;;;;;;;31.38;100.00;98088.69;5050912;28;20253;-72
2021/09/13 09:17:20;;;;;;;2.00;1.77;;;;;;;31.01;100.00;98092.78;5051364;28;20213;-72
2021/09/13 09:19:47;;;;;;;2.55;1.30;;;;;;;31.23;100.00;98084.06;5051213;28;20228;-72
2021/09/13 09:22:22;;;;;;;1.50;1.40;;;;;;;31.50;100.00;98084.84;5051422;28;20263;-72
2021/09/13 09:24:49;;;;;;;1.40;1.20;;;;;;;30.83;100.00;98081.38;5050345;28;20231;-72
2021/09/13 09:27:16;;;;;;;1.70;1.40;;;;;;;30.88;100.00;98089.31;5050035;28;20214;-72
2021/09/13 09:29:43;;;;;;;1.23;1.13;;;;;;;30.70;100.00;98086.41;5065681;28;20590;-72
2021/09/13 09:32:18;;;;;;;1.25;1.15;;;;;;;31.36;100.00;98088.38;5069260;28;20208;-72
2021/09/13 09:34:45;;;;;;;1.50;1.25;;;;;;;30.85;100.00;98088.22;5070313;28;20257;-71
2021/09/13 09:37:12;;;;;;;1.90;1.30;;;;;;;30.43;100.00;98086.38;5071175;28;20764;-72
2021/09/13 09:39:53;;;;;;;1.75;1.13;;;;;;;31.10;100.00;98081.38;5071166;28;20299;-73
2021/09/13 09:42:34;;;;;;;1.35;0.93;;;;;;;31.35;100.00;98083.91;5071210;28;20269;-73
2021/09/13 09:45:04;;;;;;;0.82;0.82;;;;;;;31.95;100.00;98080.31;5070777;28;20234;-72
2021/09/13 09:47:31;;;;;;;1.50;1.20;;;;;;;31.68;100.00;98079.09;5071636;28;20240;-72
2021/09/13 09:49:59;;;;;;;1.30;1.20;;;;;;;31.73;100.00;98081.28;5071026;28;20211;-72
2021/09/13 09:52:28;;;;;;;1.10;1.00;;;;;;;31.84;100.00;98078.72;5071420;28;20311;-72
2021/09/13 09:55:10;;;;;;;1.63;1.40;;;;;;;31.70;100.00;98081.47;5071672;28;20252;-71
2021/09/13 09:57:37;;;;;;;1.40;1.10;;;;;;;31.75;100.00;98075.91;5074936;28;20201;-72
2021/09/13 10:00:22;;;;;;;2.10;1.20;;;;;;;31.79;100.00;98076.53;5075464;28;20204;-71
2021/09/13 10:02:49;;;;;;;1.23;1.10;;;;;;;31.81;100.00;98071.13;5074463;28;20736;-71
2021/09/13 10:05:16;;;;;;;1.20;1.10;;;;;;;31.61;100.00;98079.44;5066823;28;20261;-72
2021/09/13 10:07:44;;;;;;;1.20;1.10;;;;;;;31.44;100.00;98063.94;5054069;28;20205;-73
2021/09/13 10:10:11;;;;;;;1.13;1.02;;;;;;;31.29;100.00;98065.84;5053922;28;20216;-73
2021/09/13 10:12:39;;;;;;;1.52;1.08;;;;;;;31.22;100.00;98073.94;5054017;28;20206;-72
2021/09/13 10:15:06;;;;;;;1.83;1.30;;;;;;;31.07;100.00;98058.72;5053584;28;20229;-73
2021/09/13 10:17:34;;;;;;;2.10;1.02;;;;;;;31.11;100.00;98057.31;5036496;28;20255;-73
2021/09/13 10:20:04;;;;;;;3.97;1.05;;;;;;;30.69;100.00;98050.63;5054087;28;20691;-71
2021/09/13 10:22:36;;;;;;;1.48;1.20;;;;;;;30.65;100.00;98050.00;5054015;28;20694;-72
2021/09/13 10:25:05;;;;;;;1.42;0.95;;;;;;;30.25;100.00;98058.63;5053052;28;20253;-72
2021/09/13 10:27:46;;;;;;;2.33;1.25;;;;;;;30.08;100.00;98047.94;5054039;28;20275;-72
2021/09/13 10:30:25;;;;;;;1.33;1.23;;;;;;;30.15;100.00;98056.19;5073641;28;20666;-72
2021/09/13 10:33:08;;;;;;;1.98;1.30;;;;;;;30.04;100.00;98048.09;5073723;28;20239;-72
2021/09/13 10:35:54;;;;;;;2.10;1.25;;;;;;;30.01;100.00;98045.41;5072674;28;20672;-74
2021/09/13 10:38:39;;;;;;;2.25;1.45;;;;;;;30.17;100.00;98045.13;5072992;28;20339;-73
2021/09/13 10:41:05;;;;;;;1.52;1.30;;;;;;;30.04;100.00;98038.75;5073071;28;20209;-72
2021/09/13 10:43:32;;;;;;;1.88;1.40;;;;;;;29.92;100.00;98046.97;5072546;28;20205;-74
2021/09/13 10:45:58;;;;;;;2.28;1.27;;;;;;;29.39;100.00;98044.59;5072728;28;20291;-73
2021/09/13 10:48:25;;;;;;;1.40;1.10;;;;;;;28.96;100.00;98037.66;5073427;28;20244;-74
2021/09/13 10:50:53;;;;;;;1.38;1.27;;;;;;;28.89;100.00;98037.13;5072987;28;20213;-74
2021/09/13 10:53:19;;;;;;;2.97;1.42;;;;;;;29.37;100.00;98028.00;5072473;28;20842;-73
2021/09/13 10:55:59;;;;;;;1.73;1.40;;;;;;;29.35;100.00;98036.22;5072888;28;20225;-73
2021/09/13 10:58:42;;;;;;;1.30;1.17;;;;;;;29.34;100.00;98031.78;5072714;28;20200;-73
2021/09/13 11:01:27;;;;;;;1.45;1.20;;;;;;;28.72;100.00;98032.91;5076238;28;20678;-73
2021/09/13 11:03:56;;;;;;;1.73;1.30;;;;;;;28.82;100.00;98023.19;5072788;28;20209;-74
2021/09/13 11:06:27;;;;;;;1.90;1.60;;;;;;;29.06;100.00;98024.31;5056201;28;20241;-74
2021/09/13 11:08:56;;;;;;;1.83;1.60;;;;;;;29.04;100.00;98023.19;5052551;28;20867;-74
2021/09/13 11:11:26;;;;;;;1.48;1.30;;;;;;;29.06;100.00;98017.81;5052488;28;20216;-73
2021/09/13 11:14:11;;;;;;;1.88;1.40;;;;;;;29.05;100.00;98013.41;5051718;28;20206;-73
2021/09/13 11:16:44;;;;;;;1.88;1.40;;;;;;;28.84;100.00;98015.00;5052415;28;20292;-74
2021/09/13 11:19:11;;;;;;;1.55;1.33;;;;;;;28.90;100.00;98013.16;5053295;28;20232;-74
2021/09/13 11:21:49;;;;;;;2.50;1.50;;;;;;;28.70;100.00;98002.09;5052216;28;20206;-71
2021/09/13 11:24:20;;;;;;;2.60;1.40;;;;;;;28.61;100.00;98013.38;5051372;28;20261;-74
2021/09/13 11:26:49;;;;;;;1.65;1.20;;;;;;;28.81;100.00;98004.56;5060478;28;20951;-72
2021/09/13 11:29:27;;;;;;;1.30;1.13;;;;;;;28.72;100.00;98001.66;5073815;28;20561;-72
2021/09/13 11:32:04;;;;;;;2.30;1.80;;;;;;;29.03;100.00;98002.50;5074641;28;20292;-73
2021/09/13 11:34:34;;;;;;;2.75;2.17;;;;;;;28.50;100.00;98012.16;5046186;28;20264;-72
2021/09/13 11:37:19;;;;;;;1.90;1.50;;;;;;;28.84;100.00;98012.16;5047096;28;20210;-72
2021/09/13 11:40:07;;;;;;;4.82;1.45;;;;;;;28.64;100.00;97997.47;5052068;28;20258;-72
2021/09/13 11:42:34;;;;;;;2.42;1.35;;;;;;;28.33;100.00;97996.53;5052017;28;20233;-72
2021/09/13 11:45:07;;;;;;;1.30;1.20;;;;;;;28.36;100.00;97992.75;5051235;28;20221;-72
2021/09/13 11:47:50;;;;;;;1.50;1.40;;;;;;;28.26;100.00;97989.06;5052877;28;20197;-73
2021/09/13 11:50:17;;;;;;;1.75;1.60;;;;;;;28.53;100.00;97986.50;5052164;28;20292;-73
2021/09/13 11:52:44;;;;;;;2.65;1.58;;;;;;;28.02;100.00;97989.91;5052092;28;20217;-73
2021/09/13 11:55:18;;;;;;;2.05;1.38;;;;;;;27.83;100.00;97995.34;5051145;28;20706;-72
2021/09/13 11:57:53;;;;;;;1.67;1.50;;;;;;;28.29;100.00;97987.34;5069559;28;20272;-72
2021/09/13 12:00:21;;;;;;;2.85;1.40;;;;;;;27.86;100.00;97988.75;5071892;28;20201;-73
2021/09/13 12:02:57;;;;;;;2.22;1.40;;;;;;;27.37;100.00;97996.03;5071889;28;20219;-73
2021/09/13 12:05:28;;;;;;;1.90;1.77;;;;;;;27.08;100.00;97989.63;5063069;28;20287;-72
2021/09/13 12:07:57;;;;;;;1.98;1.50;;;;;;;27.24;100.00;97991.59;5050367;28;20216;-73